ELY025 LLBG-KEWR
Flight info
| Callsign | ELY025 |
|---|---|
| Flight time | N/A |
| Altitude | 36000 |
| Route | SUVAS N128 OTHON UN128 LMO DCT EVIVI L863 EDIKA/N0479F360 L863 OKANA DCT BABIT DCT SASAL DCT DEXIT DCT MAPOX DCT OTMEC DCT RAVLO Y70 OTBED L60 PENIL M144 BAGSO DCT RINUS DCT OLGON/N0486F380 DCT NEBIN/M083F380 DCT 5330N02000W 5230N03000W 51N040W 4930N05000W DCT IBERG/N0479F400 N364A TUSKY DCT BOS DCT NELIE FLOSI4 |
| Aircraft | B772/H-SDE2E3FGHIJ5LORVWXY/LB1D1 |
Departure
| Time | 2026-05-07 21:01 |
|---|---|
| Airport | Ben Gurion International Airport (LLBG) |
Arrival
| Time | N/A |
|---|---|
| Airport | Newark Liberty International Airport (KEWR) |
| Time | Latitude | Longitude | Altitude | Speed | Heading |
|---|---|---|---|---|---|
| 2026-05-07 20:39 | 32.00606 | 34.87507 | 124 ft | 0 kts | 243° |
| 2026-05-07 20:51 | 32.00611 | 34.87520 | 119 ft | 3 kts | 244° |
| 2026-05-07 20:51 | 32.00620 | 34.87542 | 119 ft | 2 kts | 242° |
| 2026-05-07 20:51 | 32.00629 | 34.87559 | 120 ft | 3 kts | 220° |
| 2026-05-07 20:52 | 32.00640 | 34.87568 | 119 ft | 3 kts | 184° |
| 2026-05-07 20:52 | 32.00652 | 34.87568 | 119 ft | 3 kts | 143° |
| 2026-05-07 20:52 | 32.00660 | 34.87559 | 119 ft | 1 kts | 120° |
| 2026-05-07 20:52 | 32.00655 | 34.87569 | 124 ft | 3 kts | 121° |
| 2026-05-07 20:53 | 32.00644 | 34.87589 | 122 ft | 3 kts | 123° |
| 2026-05-07 20:53 | 32.00633 | 34.87608 | 120 ft | 2 kts | 121° |
| 2026-05-07 20:53 | 32.00631 | 34.87613 | 121 ft | 0 kts | 121° |
| 2026-05-07 20:55 | 32.00619 | 34.87638 | 120 ft | 12 kts | 119° |
| 2026-05-07 20:56 | 32.00607 | 34.87697 | 120 ft | 5 kts | 89° |
| 2026-05-07 20:56 | 32.00620 | 34.87773 | 121 ft | 10 kts | 99° |
| 2026-05-07 20:56 | 32.00592 | 34.87850 | 121 ft | 10 kts | 116° |
| 2026-05-07 20:56 | 32.00616 | 34.87938 | 122 ft | 21 kts | 39° |
| 2026-05-07 20:57 | 32.00751 | 34.88037 | 119 ft | 23 kts | 31° |
| 2026-05-07 20:57 | 32.00887 | 34.88135 | 121 ft | 23 kts | 31° |
| 2026-05-07 20:57 | 32.01031 | 34.88241 | 120 ft | 26 kts | 32° |
| 2026-05-07 20:57 | 32.01190 | 34.88356 | 121 ft | 27 kts | 31° |
| 2026-05-07 20:58 | 32.01338 | 34.88492 | 120 ft | 27 kts | 46° |
| 2026-05-07 20:58 | 32.01420 | 34.88665 | 122 ft | 19 kts | 64° |
| 2026-05-07 20:58 | 32.01498 | 34.88862 | 121 ft | 35 kts | 78° |
| 2026-05-07 20:58 | 32.01543 | 34.89140 | 123 ft | 32 kts | 82° |
| 2026-05-07 20:59 | 32.01580 | 34.89386 | 120 ft | 30 kts | 79° |
| 2026-05-07 20:59 | 32.01614 | 34.89600 | 121 ft | 24 kts | 79° |
| 2026-05-07 20:59 | 32.01725 | 34.89734 | 119 ft | 24 kts | 30° |
| 2026-05-07 20:59 | 32.01839 | 34.89741 | 120 ft | 12 kts | 286° |
| 2026-05-07 21:00 | 32.01825 | 34.89597 | 122 ft | 28 kts | 260° |
| 2026-05-07 21:00 | 32.01770 | 34.89245 | 119 ft | 68 kts | 259° |
| 2026-05-07 21:00 | 32.01654 | 34.88490 | 123 ft | 118 kts | 259° |
| 2026-05-07 21:00 | 32.01479 | 34.87345 | 123 ft | 164 kts | 259° |
| 2026-05-07 21:01 | 32.01259 | 34.85891 | 297 ft | 186 kts | 261° |
| 2026-05-07 21:01 | 32.01003 | 34.84359 | 637 ft | 202 kts | 259° |
| 2026-05-07 21:01 | 32.00706 | 34.82716 | 1174 ft | 206 kts | 261° |
| 2026-05-07 21:01 | 32.00383 | 34.81097 | 1919 ft | 199 kts | 259° |
| 2026-05-07 21:02 | 32.00019 | 34.79482 | 2350 ft | 214 kts | 259° |
| 2026-05-07 21:02 | 31.99627 | 34.77704 | 2542 ft | 234 kts | 259° |
| 2026-05-07 21:02 | 31.99228 | 34.75809 | 2971 ft | 241 kts | 264° |
| 2026-05-07 21:02 | 31.99328 | 34.73842 | 3356 ft | 247 kts | 287° |
| 2026-05-07 21:03 | 31.99794 | 34.71845 | 3659 ft | 259 kts | 288° |
| 2026-05-07 21:03 | 32.00285 | 34.69814 | 4167 ft | 264 kts | 288° |
| 2026-05-07 21:03 | 32.00790 | 34.67729 | 4804 ft | 264 kts | 288° |
| 2026-05-07 21:03 | 32.01297 | 34.65633 | 5375 ft | 268 kts | 287° |
| 2026-05-07 21:04 | 32.01809 | 34.63506 | 5961 ft | 271 kts | 286° |
| 2026-05-07 21:04 | 32.02324 | 34.61360 | 6538 ft | 274 kts | 285° |
| 2026-05-07 21:04 | 32.02843 | 34.59193 | 7096 ft | 275 kts | 285° |
| 2026-05-07 21:04 | 32.03360 | 34.57022 | 7688 ft | 275 kts | 285° |
| 2026-05-07 21:05 | 32.03878 | 34.54841 | 8255 ft | 277 kts | 285° |
| 2026-05-07 21:05 | 32.04391 | 34.52678 | 8844 ft | 278 kts | 285° |
| 2026-05-07 21:05 | 32.04913 | 34.50478 | 9436 ft | 279 kts | 285° |
| 2026-05-07 21:05 | 32.05436 | 34.48266 | 10022 ft | 281 kts | 284° |
| 2026-05-07 21:06 | 32.05961 | 34.46046 | 10516 ft | 284 kts | 285° |
| 2026-05-07 21:06 | 32.06508 | 34.43729 | 10658 ft | 303 kts | 285° |
| 2026-05-07 21:06 | 32.07085 | 34.41278 | 10861 ft | 319 kts | 285° |
| 2026-05-07 21:06 | 32.07697 | 34.38676 | 11000 ft | 339 kts | 285° |
| 2026-05-07 21:07 | 32.08335 | 34.35967 | 11307 ft | 351 kts | 285° |
| 2026-05-07 21:07 | 32.08989 | 34.33186 | 12018 ft | 352 kts | 285° |
| 2026-05-07 21:07 | 32.09642 | 34.30406 | 12728 ft | 355 kts | 285° |
| 2026-05-07 21:07 | 32.10311 | 34.27559 | 13188 ft | 363 kts | 285° |
| 2026-05-07 21:08 | 32.10987 | 34.24677 | 13837 ft | 367 kts | 285° |
| 2026-05-07 21:08 | 32.11670 | 34.21757 | 14423 ft | 371 kts | 286° |
| 2026-05-07 21:08 | 32.12362 | 34.18797 | 14960 ft | 377 kts | 286° |
| 2026-05-07 21:08 | 32.13063 | 34.15795 | 15560 ft | 382 kts | 286° |
| 2026-05-07 21:09 | 32.13772 | 34.12757 | 16109 ft | 387 kts | 286° |
| 2026-05-07 21:09 | 32.14482 | 34.09710 | 16662 ft | 393 kts | 286° |
| 2026-05-07 21:09 | 32.15210 | 34.06583 | 17292 ft | 397 kts | 286° |
| 2026-05-07 21:09 | 32.15950 | 34.03438 | 17969 ft | 399 kts | 288° |
| 2026-05-07 21:10 | 32.16920 | 34.00361 | 18588 ft | 402 kts | 295° |
| 2026-05-07 21:10 | 32.18173 | 33.97402 | 19175 ft | 404 kts | 300° |
| 2026-05-07 21:10 | 32.19664 | 33.94585 | 19775 ft | 406 kts | 305° |
| 2026-05-07 21:10 | 32.21305 | 33.91851 | 20316 ft | 410 kts | 306° |
| 2026-05-07 21:11 | 32.22954 | 33.89145 | 20881 ft | 413 kts | 306° |
| 2026-05-07 21:11 | 32.24640 | 33.86385 | 21483 ft | 415 kts | 306° |
| 2026-05-07 21:11 | 32.28030 | 33.80811 | 22584 ft | 421 kts | 306° |
| 2026-05-07 21:12 | 32.29736 | 33.77987 | 23098 ft | 424 kts | 306° |
| 2026-05-07 21:12 | 32.31453 | 33.75137 | 23598 ft | 427 kts | 306° |
| 2026-05-07 21:12 | 32.33178 | 33.72265 | 24020 ft | 430 kts | 306° |
| 2026-05-07 21:12 | 32.34891 | 33.69411 | 24443 ft | 432 kts | 306° |
| 2026-05-07 21:13 | 32.36630 | 33.66508 | 24871 ft | 434 kts | 306° |
| 2026-05-07 21:13 | 32.38375 | 33.63592 | 25260 ft | 436 kts | 306° |
| 2026-05-07 21:13 | 32.40133 | 33.60655 | 25651 ft | 438 kts | 306° |
| 2026-05-07 21:13 | 32.41896 | 33.57704 | 26014 ft | 440 kts | 306° |
| 2026-05-07 21:14 | 32.43668 | 33.54738 | 26393 ft | 442 kts | 306° |
| 2026-05-07 21:14 | 32.45449 | 33.51755 | 26750 ft | 444 kts | 306° |
| 2026-05-07 21:14 | 32.47233 | 33.48763 | 27102 ft | 446 kts | 307° |
| 2026-05-07 21:14 | 32.49025 | 33.45756 | 27429 ft | 448 kts | 307° |
| 2026-05-07 21:15 | 32.50801 | 33.42774 | 27739 ft | 450 kts | 307° |
| 2026-05-07 21:15 | 32.52461 | 33.39984 | 28024 ft | 452 kts | 307° |
| 2026-05-07 21:15 | 32.54271 | 33.36938 | 28322 ft | 453 kts | 307° |
| 2026-05-07 21:15 | 32.56090 | 33.33878 | 28597 ft | 455 kts | 307° |
| 2026-05-07 21:16 | 32.57914 | 33.30804 | 28848 ft | 457 kts | 307° |
| 2026-05-07 21:16 | 32.59746 | 33.27715 | 29092 ft | 459 kts | 307° |
| 2026-05-07 21:16 | 32.61583 | 33.24616 | 29329 ft | 460 kts | 307° |
| 2026-05-07 21:16 | 32.63425 | 33.21505 | 29548 ft | 461 kts | 307° |
| 2026-05-07 21:17 | 32.65272 | 33.18383 | 29775 ft | 463 kts | 307° |
| 2026-05-07 21:17 | 32.67100 | 33.15290 | 29960 ft | 464 kts | 306° |
| 2026-05-07 21:17 | 32.68951 | 33.12156 | 30205 ft | 464 kts | 306° |
| 2026-05-07 21:17 | 32.70802 | 33.09019 | 30468 ft | 463 kts | 306° |
| 2026-05-07 21:18 | 32.72648 | 33.05889 | 30745 ft | 461 kts | 306° |
| 2026-05-07 21:18 | 32.74483 | 33.02772 | 30980 ft | 461 kts | 306° |
| 2026-05-07 21:18 | 32.75697 | 33.00710 | 31132 ft | 460 kts | 306° |
| 2026-05-07 21:18 | 32.77227 | 32.98110 | 31319 ft | 460 kts | 306° |
| 2026-05-07 21:19 | 32.79057 | 32.94998 | 31556 ft | 459 kts | 306° |
| 2026-05-07 21:19 | 32.80859 | 32.91930 | 31788 ft | 458 kts | 306° |
| 2026-05-07 21:19 | 32.82679 | 32.88830 | 32018 ft | 457 kts | 306° |
| 2026-05-07 21:19 | 32.84495 | 32.85733 | 32243 ft | 456 kts | 306° |
| 2026-05-07 21:20 | 32.86309 | 32.82638 | 32471 ft | 455 kts | 306° |
| 2026-05-07 21:20 | 32.88117 | 32.79549 | 32712 ft | 454 kts | 306° |
| 2026-05-07 21:20 | 32.89921 | 32.76466 | 32930 ft | 454 kts | 306° |
| 2026-05-07 21:20 | 32.91720 | 32.73389 | 33151 ft | 453 kts | 306° |
| 2026-05-07 21:21 | 32.93515 | 32.70316 | 33385 ft | 452 kts | 306° |
| 2026-05-07 21:21 | 32.95281 | 32.67290 | 33595 ft | 451 kts | 306° |
| 2026-05-07 21:21 | 32.97067 | 32.64226 | 33843 ft | 450 kts | 306° |
| 2026-05-07 21:21 | 32.98847 | 32.61171 | 34091 ft | 448 kts | 306° |
| 2026-05-07 21:22 | 33.00623 | 32.58120 | 34272 ft | 448 kts | 306° |
| 2026-05-07 21:22 | 33.02394 | 32.55076 | 34456 ft | 447 kts | 306° |
| 2026-05-07 21:22 | 33.04164 | 32.52031 | 34626 ft | 446 kts | 306° |
| 2026-05-07 21:22 | 33.05930 | 32.48990 | 34825 ft | 445 kts | 306° |
| 2026-05-07 21:23 | 33.07666 | 32.45998 | 35007 ft | 444 kts | 306° |
| 2026-05-07 21:23 | 33.09421 | 32.42972 | 35195 ft | 443 kts | 306° |
| 2026-05-07 21:23 | 33.11169 | 32.39954 | 35397 ft | 442 kts | 306° |
| 2026-05-07 21:23 | 33.12915 | 32.36937 | 35582 ft | 441 kts | 306° |
| 2026-05-07 21:24 | 33.14653 | 32.33931 | 35759 ft | 440 kts | 306° |
| 2026-05-07 21:24 | 33.16390 | 32.30927 | 35933 ft | 439 kts | 306° |
| 2026-05-07 21:24 | 33.18122 | 32.27926 | 36042 ft | 439 kts | 306° |
| 2026-05-07 21:24 | 33.19856 | 32.24921 | 36090 ft | 440 kts | 306° |
| 2026-05-07 21:25 | 33.23297 | 32.18951 | 36131 ft | 439 kts | 306° |
| 2026-05-07 21:25 | 33.26744 | 32.12959 | 36140 ft | 436 kts | 306° |
| 2026-05-07 21:26 | 33.30171 | 32.06991 | 36137 ft | 434 kts | 306° |
| 2026-05-07 21:26 | 33.33582 | 32.01044 | 36140 ft | 433 kts | 306° |
| 2026-05-07 21:27 | 33.36954 | 31.95153 | 36139 ft | 431 kts | 306° |
| 2026-05-07 21:27 | 33.40336 | 31.89237 | 36142 ft | 430 kts | 306° |
| 2026-05-07 21:28 | 33.43704 | 31.83334 | 36143 ft | 429 kts | 306° |
| 2026-05-07 21:28 | 33.47062 | 31.77442 | 36143 ft | 427 kts | 306° |
| 2026-05-07 21:29 | 33.50382 | 31.71613 | 36145 ft | 426 kts | 306° |
| 2026-05-07 21:29 | 33.53713 | 31.65756 | 36148 ft | 424 kts | 307° |
| 2026-05-07 21:30 | 33.57029 | 31.59916 | 36146 ft | 423 kts | 307° |
| 2026-05-07 21:30 | 33.60328 | 31.54093 | 36146 ft | 421 kts | 307° |
| 2026-05-07 21:31 | 33.63594 | 31.48323 | 36152 ft | 420 kts | 307° |
| 2026-05-07 21:31 | 33.66866 | 31.42530 | 36153 ft | 419 kts | 307° |
| 2026-05-07 21:32 | 33.70128 | 31.36746 | 36151 ft | 418 kts | 307° |
| 2026-05-07 21:32 | 33.73382 | 31.30969 | 36153 ft | 418 kts | 307° |
| 2026-05-07 21:33 | 33.76609 | 31.25229 | 36149 ft | 417 kts | 307° |
| 2026-05-07 21:33 | 33.79805 | 31.19535 | 36151 ft | 417 kts | 307° |
| 2026-05-07 21:34 | 33.82983 | 31.13864 | 36148 ft | 415 kts | 307° |
| 2026-05-07 21:34 | 33.86203 | 31.08110 | 36150 ft | 414 kts | 307° |
| 2026-05-07 21:35 | 33.89385 | 31.02415 | 36147 ft | 412 kts | 307° |
| 2026-05-07 21:35 | 33.92574 | 30.96697 | 36145 ft | 411 kts | 307° |
| 2026-05-07 21:36 | 33.95750 | 30.90996 | 36146 ft | 409 kts | 307° |
| 2026-05-07 21:36 | 33.98914 | 30.85302 | 36144 ft | 408 kts | 307° |
| 2026-05-07 21:37 | 34.02043 | 30.79660 | 36161 ft | 407 kts | 307° |
| 2026-05-07 21:37 | 34.05189 | 30.73980 | 36161 ft | 407 kts | 307° |
| 2026-05-07 21:38 | 34.08329 | 30.68301 | 36155 ft | 407 kts | 307° |
| 2026-05-07 21:38 | 34.11443 | 30.62659 | 36152 ft | 406 kts | 307° |
| 2026-05-07 21:39 | 34.14570 | 30.56984 | 36155 ft | 406 kts | 307° |
| 2026-05-07 21:39 | 34.17693 | 30.51309 | 36154 ft | 405 kts | 307° |
| 2026-05-07 21:40 | 34.20808 | 30.45640 | 36156 ft | 405 kts | 308° |